Time;durP1;ratioP1;P1;durP2;ratioP2;P2;SDS_P1;SDS_P2;PMS_P1;PMS_P2;Temp;Humidity;BMP_temperature;BMP_pressure;BME280_temperature;BME280_humidity;BME280_pressure;Samples;Min_cycle;Max_cycle;Signal;HPM_P1;HPM_P2
2024/01/30 00:01:22;;;;;;;16.90;15.10;;;6.90;99.90;;;;;;5075857;28;20040;-72
2024/01/30 00:03:48;;;;;;;17.92;14.48;;;6.90;99.90;;;;;;5074597;28;20048;-72
2024/01/30 00:06:14;;;;;;;15.40;13.60;;;6.80;99.90;;;;;;5074196;28;20408;-72
2024/01/30 00:08:39;;;;;;;17.88;14.77;;;6.70;99.90;;;;;;5057471;28;20051;-72
2024/01/30 00:11:05;;;;;;;18.83;14.55;;;6.70;99.90;;;;;;5074188;28;20044;-72
2024/01/30 00:13:30;;;;;;;23.25;16.00;;;6.70;99.90;;;;;;5074382;28;20131;-72
2024/01/30 00:15:56;;;;;;;19.85;14.85;;;6.70;99.90;;;;;;5075951;28;20432;-72
2024/01/30 00:18:21;;;;;;;17.73;14.55;;;6.70;99.90;;;;;;5075572;28;20033;-72
2024/01/30 00:20:47;;;;;;;26.65;14.88;;;6.70;99.90;;;;;;5075477;28;20553;-72
2024/01/30 00:23:13;;;;;;;18.92;14.20;;;6.70;99.90;;;;;;5073944;28;20044;-71
2024/01/30 00:25:38;;;;;;;21.98;15.35;;;6.70;99.90;;;;;;5073859;28;20040;-71
2024/01/30 00:28:04;;;;;;;19.25;14.60;;;6.70;99.90;;;;;;5075356;28;20082;-71
2024/01/30 00:30:30;;;;;;;19.02;14.45;;;6.70;99.90;;;;;;5073789;28;20052;-72
2024/01/30 00:32:55;;;;;;;20.13;15.63;;;6.70;99.90;;;;;;5075277;28;20494;-72
2024/01/30 00:35:22;;;;;;;18.50;14.20;;;6.70;99.90;;;;;;5075176;28;20055;-72
2024/01/30 00:37:48;;;;;;;18.75;15.77;;;6.70;99.90;;;;;;5073670;28;20051;-72
2024/01/30 00:40:15;;;;;;;24.98;16.27;;;6.70;99.90;;;;;;5073592;28;20508;-72
2024/01/30 00:42:44;;;;;;;17.42;14.95;;;6.70;99.90;;;;;;5073550;28;20041;-72
2024/01/30 00:45:14;;;;;;;18.38;15.13;;;6.80;99.90;;;;;;5074652;28;20105;-71
2024/01/30 00:47:40;;;;;;;20.15;14.80;;;6.80;99.90;;;;;;5074753;28;20032;-71
2024/01/30 00:50:06;;;;;;;21.85;15.88;;;6.70;99.90;;;;;;5074492;28;20408;-71
2024/01/30 00:52:32;;;;;;;20.70;15.13;;;6.80;99.90;;;;;;5073384;28;20041;-71
2024/01/30 00:54:58;;;;;;;22.75;16.27;;;6.70;99.90;;;;;;5073338;28;20055;-71
2024/01/30 00:57:24;;;;;;;20.70;15.15;;;6.70;99.90;;;;;;5074739;28;20036;-71
2024/01/30 00:59:50;;;;;;;18.92;15.40;;;6.70;99.90;;;;;;5073433;28;20097;-71
2024/01/30 01:02:17;;;;;;;20.92;15.27;;;6.70;99.90;;;;;;5073447;28;20045;-72
2024/01/30 01:04:43;;;;;;;20.38;14.63;;;6.70;99.90;;;;;;5073096;28;20097;-72
2024/01/30 01:07:08;;;;;;;20.15;15.27;;;6.70;99.90;;;;;;5072969;28;20036;-72
2024/01/30 01:09:34;;;;;;;19.63;15.63;;;6.70;99.90;;;;;;5073933;28;20044;-72
2024/01/30 01:11:59;;;;;;;20.25;15.65;;;6.60;99.90;;;;;;5073133;28;20044;-72
2024/01/30 01:14:25;;;;;;;18.48;14.63;;;6.60;99.90;;;;;;5072913;28;20470;-72
2024/01/30 01:16:51;;;;;;;17.90;14.00;;;6.60;99.90;;;;;;5072827;28;20090;-72
2024/01/30 01:19:16;;;;;;;19.67;15.05;;;6.60;99.90;;;;;;5072808;28;20044;-72
2024/01/30 01:21:42;;;;;;;21.23;16.02;;;6.60;99.90;;;;;;5072750;28;20044;-72
2024/01/30 01:24:07;;;;;;;18.77;14.65;;;6.60;99.90;;;;;;5072999;28;20101;-72
2024/01/30 01:26:33;;;;;;;21.88;14.75;;;6.60;99.90;;;;;;5074092;28;20048;-71
2024/01/30 01:28:59;;;;;;;19.67;14.35;;;6.60;99.90;;;;;;5072572;28;20041;-71
2024/01/30 01:31:24;;;;;;;20.17;14.52;;;6.60;99.90;;;;;;5074093;28;20025;-71
2024/01/30 01:33:50;;;;;;;21.13;15.35;;;6.60;99.90;;;;;;5072557;28;20579;-71
2024/01/30 01:36:16;;;;;;;18.25;14.20;;;6.60;99.90;;;;;;5073918;28;20036;-71
2024/01/30 01:38:41;;;;;;;17.23;14.15;;;6.50;99.90;;;;;;5072685;28;20044;-71
2024/01/30 01:41:07;;;;;;;18.77;14.77;;;6.50;99.90;;;;;;5073961;28;20036;-71
2024/01/30 01:43:32;;;;;;;16.02;13.50;;;6.50;99.90;;;;;;5072408;28;20123;-71
2024/01/30 01:45:58;;;;;;;18.73;14.70;;;6.50;99.90;;;;;;5073453;28;20071;-72
2024/01/30 01:48:24;;;;;;;20.02;15.88;;;6.50;99.90;;;;;;5073411;28;20068;-72
2024/01/30 01:50:51;;;;;;;18.58;14.43;;;6.50;99.90;;;;;;5073528;28;20564;-72
2024/01/30 01:53:17;;;;;;;18.70;14.57;;;6.50;99.90;;;;;;5073786;28;20040;-72
2024/01/30 01:55:43;;;;;;;18.63;14.80;;;6.50;99.90;;;;;;5073633;28;20044;-71
2024/01/30 01:58:10;;;;;;;21.80;15.50;;;6.50;99.90;;;;;;5073667;28;20032;-71
2024/01/30 02:00:39;;;;;;;22.50;15.48;;;6.50;99.90;;;;;;5072152;28;20040;-71
2024/01/30 02:03:06;;;;;;;21.15;15.32;;;6.50;99.90;;;;;;5072116;28;20087;-71
2024/01/30 02:05:32;;;;;;;20.52;15.18;;;6.50;99.90;;;;;;5071997;28;20447;-71
2024/01/30 02:07:58;;;;;;;19.15;14.32;;;6.50;99.90;;;;;;5073582;28;20036;-71
2024/01/30 02:10:23;;;;;;;18.65;13.75;;;6.50;99.90;;;;;;5073489;28;20040;-71
2024/01/30 02:12:50;;;;;;;21.42;14.45;;;6.50;99.90;;;;;;5072006;28;20043;-71
2024/01/30 02:15:15;;;;;;;18.08;14.55;;;6.50;99.90;;;;;;5073409;28;20071;-71
2024/01/30 02:17:41;;;;;;;21.20;14.55;;;6.50;99.90;;;;;;5071934;28;20068;-71
2024/01/30 02:20:07;;;;;;;17.55;13.60;;;6.50;99.90;;;;;;5073185;28;20041;-71
2024/01/30 02:22:35;;;;;;;19.58;14.07;;;6.50;99.90;;;;;;5071847;28;20041;-71
2024/01/30 02:25:00;;;;;;;17.85;13.57;;;6.50;99.90;;;;;;5073308;28;20121;-71
2024/01/30 02:27:26;;;;;;;18.65;14.27;;;6.50;99.90;;;;;;5072100;28;20094;-71
2024/01/30 02:29:51;;;;;;;19.45;13.68;;;6.50;99.90;;;;;;5071884;28;20052;-72
2024/01/30 02:32:17;;;;;;;22.40;14.57;;;6.50;99.90;;;;;;5071783;28;20519;-72
2024/01/30 02:34:43;;;;;;;17.55;12.85;;;6.40;99.90;;;;;;5072026;28;20044;-71
2024/01/30 02:37:08;;;;;;;18.55;15.00;;;6.40;99.90;;;;;;5073190;28;20618;-72
2024/01/30 02:39:34;;;;;;;19.58;13.25;;;6.40;99.90;;;;;;5073227;28;20033;-72
2024/01/30 02:41:59;;;;;;;18.15;14.05;;;6.40;99.90;;;;;;5071716;28;20044;-72
2024/01/30 02:44:25;;;;;;;16.98;13.63;;;6.40;99.90;;;;;;5071486;28;20071;-71
2024/01/30 02:46:51;;;;;;;21.40;14.50;;;6.30;99.90;;;;;;5073083;28;20040;-72
2024/01/30 02:49:16;;;;;;;18.42;13.68;;;6.40;99.90;;;;;;5073052;28;20041;-72
2024/01/30 02:51:42;;;;;;;17.35;13.93;;;6.40;99.90;;;;;;5071873;28;20079;-72
2024/01/30 02:54:07;;;;;;;19.38;13.75;;;6.30;99.90;;;;;;5072785;28;20036;-72
2024/01/30 02:56:33;;;;;;;18.83;13.70;;;6.30;99.90;;;;;;5071471;28;20048;-72
2024/01/30 02:58:59;;;;;;;18.77;13.95;;;6.30;99.90;;;;;;5073052;28;20072;-72
2024/01/30 03:01:24;;;;;;;17.33;13.63;;;6.30;99.90;;;;;;5071787;28;20436;-72
2024/01/30 03:03:50;;;;;;;17.38;14.20;;;6.30;99.90;;;;;;5071462;28;20454;-72
2024/01/30 03:06:17;;;;;;;18.25;14.27;;;6.30;99.90;;;;;;5072929;28;20055;-71
2024/01/30 03:08:43;;;;;;;16.20;13.23;;;6.30;99.90;;;;;;5072851;28;20041;-71
2024/01/30 03:11:08;;;;;;;17.55;14.20;;;6.30;99.90;;;;;;5071402;28;20040;-71
2024/01/30 03:13:34;;;;;;;20.27;14.30;;;6.30;99.90;;;;;;5071404;28;20040;-71
2024/01/30 03:15:59;;;;;;;20.42;14.63;;;6.30;99.90;;;;;;5071293;28;20101;-71
2024/01/30 03:18:25;;;;;;;18.25;14.23;;;6.30;99.90;;;;;;5072863;28;20044;-71
2024/01/30 03:20:50;;;;;;;18.10;13.73;;;6.30;99.90;;;;;;5071349;28;20042;-72
2024/01/30 03:23:16;;;;;;;22.25;14.60;;;6.30;99.90;;;;;;5072834;28;20049;-72
2024/01/30 03:25:42;;;;;;;18.40;13.45;;;6.30;99.90;;;;;;5071436;28;20037;-71
2024/01/30 03:28:07;;;;;;;16.48;13.98;;;6.30;99.90;;;;;;5072780;28;20424;-72
2024/01/30 03:30:34;;;;;;;18.05;14.05;;;6.30;99.90;;;;;;5071223;28;20079;-72
2024/01/30 03:33:00;;;;;;;17.52;14.15;;;6.30;99.90;;;;;;5071968;28;20055;-71
2024/01/30 03:35:25;;;;;;;17.83;14.00;;;6.30;99.90;;;;;;5058408;28;20025;-71
2024/01/30 03:37:51;;;;;;;17.05;13.70;;;6.30;99.90;;;;;;5074818;28;20401;-71
2024/01/30 03:40:16;;;;;;;18.38;13.10;;;6.30;99.90;;;;;;5075013;28;20041;-71
2024/01/30 03:42:42;;;;;;;20.05;14.48;;;6.40;99.90;;;;;;5075009;28;20055;-71
2024/01/30 03:45:08;;;;;;;17.10;13.30;;;6.40;99.90;;;;;;5075812;28;20467;-71
2024/01/30 03:47:34;;;;;;;16.10;13.10;;;6.40;99.90;;;;;;5074661;28;20043;-71
2024/01/30 03:49:59;;;;;;;19.33;13.98;;;6.40;99.90;;;;;;5074616;28;20040;-71
2024/01/30 03:52:25;;;;;;;18.88;13.98;;;6.40;99.90;;;;;;5074562;28;20506;-71
2024/01/30 03:54:51;;;;;;;19.67;14.48;;;6.40;99.90;;;;;;5074833;28;20128;-71
2024/01/30 03:57:17;;;;;;;19.02;13.05;;;6.40;99.90;;;;;;5075615;28;20485;-71
2024/01/30 03:59:43;;;;;;;20.40;13.82;;;6.40;99.90;;;;;;5074675;28;20055;-71
2024/01/30 04:02:09;;;;;;;15.75;12.55;;;6.50;99.90;;;;;;5075583;28;20493;-71
2024/01/30 04:04:35;;;;;;;15.88;13.07;;;6.50;99.90;;;;;;5075873;28;20041;-71
2024/01/30 04:07:00;;;;;;;18.38;13.20;;;6.50;99.90;;;;;;5075717;28;20047;-71
2024/01/30 04:09:28;;;;;;;16.15;12.70;;;6.50;99.90;;;;;;5074149;28;20037;-71
2024/01/30 04:11:54;;;;;;;15.98;13.15;;;6.50;99.90;;;;;;5074234;28;20120;-71
2024/01/30 04:14:19;;;;;;;19.58;13.30;;;6.50;99.90;;;;;;5074115;28;20128;-71
2024/01/30 04:16:45;;;;;;;18.38;12.85;;;6.50;99.90;;;;;;5074075;28;20036;-71
2024/01/30 04:19:10;;;;;;;15.60;13.57;;;6.50;99.90;;;;;;5075554;28;20036;-71
2024/01/30 04:21:36;;;;;;;19.80;12.90;;;6.60;99.90;;;;;;5057625;28;20048;-71
2024/01/30 04:24:02;;;;;;;21.42;13.45;;;6.60;99.90;;;;;;5074301;28;20036;-71
2024/01/30 04:26:27;;;;;;;16.40;13.57;;;6.60;99.90;;;;;;5073862;28;20048;-71
2024/01/30 04:28:53;;;;;;;16.67;12.85;;;6.60;99.90;;;;;;5075317;28;20167;-71
2024/01/30 04:31:19;;;;;;;17.35;13.45;;;6.60;99.90;;;;;;5075369;28;20064;-71
2024/01/30 04:33:44;;;;;;;18.17;12.57;;;6.60;99.90;;;;;;5073782;28;20382;-72
2024/01/30 04:36:10;;;;;;;19.02;12.30;;;6.60;99.90;;;;;;5073647;28;20047;-71
2024/01/30 04:38:35;;;;;;;14.93;12.82;;;6.60;99.90;;;;;;5073959;28;20045;-71
2024/01/30 04:41:01;;;;;;;16.65;12.40;;;6.60;99.90;;;;;;5073646;28;20489;-71
2024/01/30 04:43:27;;;;;;;16.83;12.98;;;6.60;99.90;;;;;;5075103;28;20043;-72
2024/01/30 04:45:52;;;;;;;18.35;12.73;;;6.60;99.90;;;;;;5072331;28;20086;-71
2024/01/30 04:48:18;;;;;;;16.05;12.95;;;6.70;99.90;;;;;;5073478;28;20119;-71
2024/01/30 04:50:44;;;;;;;16.55;12.00;;;6.70;99.90;;;;;;5073381;28;20036;-71
2024/01/30 04:53:09;;;;;;;17.50;12.50;;;6.70;99.90;;;;;;5073364;28;20091;-71
2024/01/30 04:55:36;;;;;;;17.65;11.88;;;6.70;99.90;;;;;;5074790;28;20032;-72
2024/01/30 04:58:01;;;;;;;15.57;13.18;;;6.70;99.90;;;;;;5074797;28;20036;-71
2024/01/30 05:00:27;;;;;;;16.90;12.63;;;6.70;99.90;;;;;;5073240;28;20113;-71
2024/01/30 05:02:55;;;;;;;15.35;12.23;;;6.80;99.90;;;;;;5073190;28;20044;-71
2024/01/30 05:05:21;;;;;;;17.83;11.85;;;6.80;99.90;;;;;;5056412;28;20044;-71
2024/01/30 05:07:47;;;;;;;16.35;11.95;;;6.80;99.90;;;;;;5073101;28;20478;-72
2024/01/30 05:10:13;;;;;;;16.63;12.07;;;6.90;99.90;;;;;;5072935;28;20043;-72
2024/01/30 05:12:39;;;;;;;14.80;12.05;;;6.90;99.90;;;;;;5074504;28;20063;-71
2024/01/30 05:15:05;;;;;;;19.08;12.45;;;6.90;99.90;;;;;;5073147;28;20040;-72
2024/01/30 05:17:31;;;;;;;15.00;11.52;;;6.90;99.90;;;;;;5072881;28;20390;-72
2024/01/30 05:19:56;;;;;;;15.27;12.15;;;7.00;99.90;;;;;;5072807;28;20051;-72
2024/01/30 05:22:22;;;;;;;15.20;11.70;;;7.00;99.90;;;;;;5073047;28;20048;-72
2024/01/30 05:24:47;;;;;;;16.20;11.77;;;7.10;99.90;;;;;;5073039;28;20047;-72
2024/01/30 05:27:14;;;;;;;14.13;11.68;;;7.10;99.90;;;;;;5074153;28;20409;-72
2024/01/30 05:29:40;;;;;;;19.20;12.13;;;7.00;99.90;;;;;;5074153;28;20087;-72
2024/01/30 05:32:06;;;;;;;16.08;12.32;;;7.00;99.90;;;;;;5072637;28;20078;-72
2024/01/30 05:34:32;;;;;;;20.08;12.93;;;7.00;99.90;;;;;;5072591;28;20032;-72
2024/01/30 05:36:57;;;;;;;16.67;12.00;;;7.10;99.90;;;;;;5072711;28;20102;-72
2024/01/30 05:39:23;;;;;;;15.48;11.93;;;7.00;99.90;;;;;;5072505;28;20519;-71
2024/01/30 05:41:48;;;;;;;17.85;12.15;;;7.10;99.90;;;;;;5073703;28;20076;-71
2024/01/30 05:44:14;;;;;;;17.38;12.05;;;7.10;99.90;;;;;;5072219;28;20044;-71
2024/01/30 05:46:40;;;;;;;14.00;11.38;;;7.10;99.90;;;;;;5072332;28;20037;-71
2024/01/30 05:49:05;;;;;;;13.35;11.13;;;7.10;99.90;;;;;;5072267;28;20094;-71
2024/01/30 05:51:31;;;;;;;18.95;12.07;;;7.10;99.90;;;;;;5073817;28;20036;-71
2024/01/30 05:53:57;;;;;;;18.58;12.55;;;7.10;99.90;;;;;;5073768;28;20036;-71
2024/01/30 05:56:22;;;;;;;18.63;12.95;;;7.10;99.90;;;;;;5073451;28;20393;-71
2024/01/30 05:58:50;;;;;;;16.15;12.23;;;7.10;99.90;;;;;;5073679;28;20133;-71
2024/01/30 06:01:15;;;;;;;15.05;11.75;;;7.10;99.90;;;;;;5072126;28;20048;-71
2024/01/30 06:03:43;;;;;;;16.85;11.77;;;7.10;99.90;;;;;;5072136;28;20033;-71
2024/01/30 06:06:08;;;;;;;14.57;11.77;;;7.10;99.90;;;;;;5073554;28;20036;-71
2024/01/30 06:08:34;;;;;;;16.02;12.75;;;7.20;99.90;;;;;;5073556;28;20486;-71
2024/01/30 06:11:00;;;;;;;17.00;11.90;;;7.20;99.90;;;;;;5072014;28;20048;-71
2024/01/30 06:13:26;;;;;;;15.38;11.05;;;7.20;99.90;;;;;;5073484;28;20036;-71
2024/01/30 06:15:52;;;;;;;13.93;11.75;;;7.20;99.90;;;;;;5071918;28;20463;-71
2024/01/30 06:18:17;;;;;;;18.88;12.00;;;7.20;99.90;;;;;;5072223;28;20040;-71
2024/01/30 06:20:43;;;;;;;15.25;11.45;;;7.30;99.90;;;;;;5071903;28;20497;-71
2024/01/30 06:23:09;;;;;;;15.95;12.02;;;7.30;99.90;;;;;;5071886;28;20040;-71
2024/01/30 06:25:34;;;;;;;15.63;12.10;;;7.30;99.90;;;;;;5071793;28;20067;-71
2024/01/30 06:28:00;;;;;;;18.50;12.13;;;7.30;99.90;;;;;;5073043;28;20496;-71
2024/01/30 06:30:26;;;;;;;19.08;12.18;;;7.30;99.90;;;;;;5071720;28;20044;-71
2024/01/30 06:32:51;;;;;;;16.33;11.73;;;7.30;99.90;;;;;;5073284;28;20032;-71
2024/01/30 06:35:17;;;;;;;15.82;12.10;;;7.30;99.90;;;;;;5073160;28;20033;-71
2024/01/30 06:37:43;;;;;;;16.02;12.20;;;7.30;99.90;;;;;;5072027;28;20133;-71
2024/01/30 06:40:09;;;;;;;14.63;11.93;;;7.30;99.90;;;;;;5072935;28;20517;-72
2024/01/30 06:42:35;;;;;;;15.75;11.75;;;7.30;99.90;;;;;;5072000;28;20048;-72
2024/01/30 06:45:00;;;;;;;14.52;11.40;;;7.30;99.90;;;;;;5071515;28;20417;-71
2024/01/30 06:47:26;;;;;;;16.15;12.07;;;7.30;99.90;;;;;;5071669;28;20075;-72
2024/01/30 06:49:51;;;;;;;14.65;11.02;;;7.40;99.90;;;;;;5071719;28;20051;-72
2024/01/30 06:52:17;;;;;;;16.20;11.40;;;7.40;99.90;;;;;;5073100;28;20481;-71
2024/01/30 06:54:42;;;;;;;13.98;10.82;;;7.40;99.90;;;;;;5071545;28;20069;-71
2024/01/30 06:57:12;;;;;;;15.10;11.05;;;7.40;99.90;;;;;;5073403;28;20108;-71
2024/01/30 06:59:43;;;;;;;15.90;11.05;;;7.40;99.90;;;;;;5071539;28;20052;-71
2024/01/30 07:02:12;;;;;;;15.45;11.68;;;7.40;99.90;;;;;;5071788;28;20136;-71
2024/01/30 07:04:38;;;;;;;15.90;11.57;;;7.40;99.90;;;;;;5071701;28;20098;-71
2024/01/30 07:07:05;;;;;;;14.15;11.40;;;7.40;99.90;;;;;;5071403;28;20513;-71
2024/01/30 07:09:31;;;;;;;15.95;11.35;;;7.40;99.90;;;;;;5075852;28;20048;-72
2024/01/30 07:11:58;;;;;;;16.27;10.82;;;7.40;99.90;;;;;;5075335;28;20086;-72
2024/01/30 07:14:24;;;;;;;16.80;11.18;;;7.40;99.90;;;;;;5076782;28;20047;-72
2024/01/30 07:16:50;;;;;;;14.90;11.50;;;7.40;99.90;;;;;;5076724;28;20033;-72
2024/01/30 07:19:16;;;;;;;18.88;11.57;;;7.40;99.90;;;;;;5058567;28;20094;-72
2024/01/30 07:21:41;;;;;;;19.35;11.55;;;7.50;99.90;;;;;;5075144;28;20037;-72
2024/01/30 07:24:07;;;;;;;16.52;11.60;;;7.50;99.90;;;;;;5075099;28;20048;-72
2024/01/30 07:26:32;;;;;;;17.80;12.15;;;7.40;99.90;;;;;;5075219;28;20129;-72
2024/01/30 07:28:58;;;;;;;15.57;11.20;;;7.50;99.90;;;;;;5074935;28;20081;-72
2024/01/30 07:31:23;;;;;;;17.92;12.00;;;7.50;99.90;;;;;;5075852;28;20028;-72
2024/01/30 07:33:49;;;;;;;13.88;11.07;;;7.50;99.90;;;;;;5074943;28;20036;-72
2024/01/30 07:36:15;;;;;;;14.65;11.48;;;7.60;99.90;;;;;;5074775;28;20036;-72
2024/01/30 07:38:40;;;;;;;15.40;11.25;;;7.50;99.90;;;;;;5075109;28;20046;-73
2024/01/30 07:41:06;;;;;;;15.68;11.60;;;7.60;99.90;;;;;;5076288;28;20089;-71
2024/01/30 07:43:32;;;;;;;14.27;10.90;;;7.60;99.90;;;;;;5075929;28;20401;-72
2024/01/30 07:45:57;;;;;;;15.07;11.38;;;7.60;99.90;;;;;;5075821;28;20050;-71
2024/01/30 07:48:23;;;;;;;16.50;11.23;;;7.60;99.90;;;;;;5074645;28;20485;-71
2024/01/30 07:50:48;;;;;;;14.57;11.07;;;7.60;99.90;;;;;;5074508;28;20094;-71
2024/01/30 07:53:14;;;;;;;14.20;10.75;;;7.60;99.90;;;;;;5076018;28;20032;-72
2024/01/30 07:55:39;;;;;;;13.52;11.30;;;7.70;99.90;;;;;;5074448;28;20115;-71
2024/01/30 07:58:05;;;;;;;14.25;10.50;;;7.70;99.90;;;;;;5074484;28;20119;-71
2024/01/30 08:00:31;;;;;;;14.07;11.35;;;7.70;99.90;;;;;;5057729;28;20051;-72
2024/01/30 08:02:57;;;;;;;14.10;10.40;;;7.70;99.90;;;;;;5074395;28;20084;-72
2024/01/30 08:05:23;;;;;;;12.75;10.48;;;7.70;99.90;;;;;;5075833;28;20040;-72
2024/01/30 08:07:49;;;;;;;14.00;10.75;;;7.70;99.90;;;;;;5075484;28;20493;-72
2024/01/30 08:10:15;;;;;;;14.82;11.38;;;7.70;99.90;;;;;;5075727;28;20076;-72
2024/01/30 08:12:41;;;;;;;15.20;11.48;;;7.80;99.90;;;;;;5074200;28;20130;-72
2024/01/30 08:15:07;;;;;;;20.00;11.02;;;7.80;99.90;;;;;;5075910;28;20036;-71
2024/01/30 08:17:34;;;;;;;17.45;11.05;;;7.80;99.90;;;;;;5074217;28;20489;-72
2024/01/30 08:19:59;;;;;;;16.50;10.57;;;7.90;99.90;;;;;;5073991;28;20124;-72
2024/01/30 08:22:25;;;;;;;16.35;10.70;;;7.90;99.90;;;;;;5073982;28;20143;-72
2024/01/30 08:24:50;;;;;;;15.20;10.65;;;7.90;99.90;;;;;;5075458;28;20143;-71
2024/01/30 08:27:17;;;;;;;15.93;11.18;;;8.00;99.90;;;;;;5075345;28;20059;-71
2024/01/30 08:29:43;;;;;;;17.08;10.32;;;8.00;99.90;;;;;;5075541;28;20044;-71
2024/01/30 08:32:08;;;;;;;14.90;10.65;;;8.00;99.90;;;;;;5073865;28;20039;-71
2024/01/30 08:34:34;;;;;;;13.07;9.98;;;8.10;99.90;;;;;;5073813;28;20047;-71
2024/01/30 08:37:00;;;;;;;21.98;10.95;;;8.10;99.90;;;;;;5075180;28;20064;-71
2024/01/30 08:39:25;;;;;;;16.08;10.52;;;8.20;99.90;;;;;;5073713;28;20040;-71
2024/01/30 08:41:51;;;;;;;13.55;9.52;;;8.20;99.90;;;;;;5074824;28;20482;-71
2024/01/30 08:44:17;;;;;;;16.38;10.57;;;8.20;99.90;;;;;;5073438;28;20127;-71
2024/01/30 08:46:45;;;;;;;15.10;10.32;;;8.20;99.90;;;;;;5074786;28;20490;-71
2024/01/30 08:49:13;;;;;;;13.43;9.30;;;8.30;99.90;;;;;;5073432;28;20519;-71
2024/01/30 08:51:39;;;;;;;16.55;10.40;;;8.30;99.90;;;;;;5073452;28;20119;-71
2024/01/30 08:54:04;;;;;;;13.55;9.80;;;8.40;99.90;;;;;;5074923;28;20060;-71
2024/01/30 08:56:30;;;;;;;14.13;10.43;;;8.40;99.90;;;;;;5073519;28;20036;-71
2024/01/30 08:58:55;;;;;;;15.20;9.95;;;8.40;99.90;;;;;;5074939;28;20038;-71
2024/01/30 09:01:21;;;;;;;17.88;11.20;;;8.50;99.90;;;;;;5073242;28;20125;-71
2024/01/30 09:03:46;;;;;;;13.55;9.77;;;8.50;99.90;;;;;;5073209;28;20041;-71
2024/01/30 09:06:12;;;;;;;14.20;10.57;;;8.60;99.90;;;;;;5074695;28;20043;-71
2024/01/30 09:08:38;;;;;;;13.88;10.02;;;8.50;99.90;;;;;;5074692;28;20033;-71
2024/01/30 09:11:14;;;;;;;11.85;9.65;;;8.60;99.90;;;;;;5073010;28;20044;-72
2024/01/30 09:13:40;;;;;;;18.15;10.88;;;8.60;99.90;;;;;;5073040;28;20046;-71
2024/01/30 09:16:06;;;;;;;14.32;9.90;;;8.60;99.90;;;;;;5072919;28;20055;-71
2024/01/30 09:18:32;;;;;;;19.70;10.35;;;8.60;99.90;;;;;;5072953;28;20036;-71
2024/01/30 09:20:58;;;;;;;15.73;10.20;;;8.60;99.90;;;;;;5074400;28;20110;-71
2024/01/30 09:23:24;;;;;;;13.73;10.05;;;8.60;99.90;;;;;;5074040;28;20055;-71
2024/01/30 09:25:50;;;;;;;14.82;10.60;;;8.70;99.90;;;;;;5072725;28;20044;-71
2024/01/30 09:28:17;;;;;;;13.13;9.50;;;8.70;99.90;;;;;;5073064;28;20124;-72
2024/01/30 09:30:43;;;;;;;14.77;9.65;;;8.80;99.90;;;;;;5072105;28;20053;-72
2024/01/30 09:33:08;;;;;;;12.18;9.25;;;8.80;99.90;;;;;;5072691;28;20033;-71
2024/01/30 09:35:34;;;;;;;13.85;9.75;;;8.80;99.90;;;;;;5072519;28;20040;-71
2024/01/30 09:38:00;;;;;;;15.02;9.63;;;8.90;99.90;;;;;;5072859;28;20032;-71
2024/01/30 09:40:26;;;;;;;17.65;10.32;;;8.90;99.90;;;;;;5072518;28;20512;-71
2024/01/30 09:42:51;;;;;;;12.95;9.88;;;9.00;99.90;;;;;;5072464;28;20048;-71
2024/01/30 09:45:24;;;;;;;15.98;9.60;;;9.00;99.90;;;;;;5073520;28;20045;-71
2024/01/30 09:47:50;;;;;;;13.55;9.48;;;9.10;99.90;;;;;;5072390;28;20048;-71
2024/01/30 09:50:16;;;;;;;16.00;9.65;;;9.10;99.90;;;;;;5055575;28;20044;-71
2024/01/30 09:52:46;;;;;;;12.70;9.55;;;9.10;99.90;;;;;;5072360;28;20489;-71
2024/01/30 09:55:12;;;;;;;12.73;9.25;;;9.20;99.90;;;;;;5073650;28;20044;-71
2024/01/30 09:57:37;;;;;;;13.10;9.18;;;9.30;99.90;;;;;;5072204;28;20040;-72
2024/01/30 10:00:08;;;;;;;18.00;10.07;;;9.30;99.90;;;;;;5072553;28;20041;-71
2024/01/30 10:02:33;;;;;;;17.33;9.55;;;9.30;99.90;;;;;;5072188;28;20040;-71
2024/01/30 10:05:00;;;;;;;11.90;9.07;;;9.40;99.90;;;;;;5072093;28;20127;-71
2024/01/30 10:07:26;;;;;;;15.02;10.20;;;9.40;99.90;;;;;;5071950;28;20036;-71
2024/01/30 10:09:53;;;;;;;15.65;9.43;;;9.40;99.90;;;;;;5072118;28;20044;-71
2024/01/30 10:12:18;;;;;;;12.95;8.95;;;9.50;99.90;;;;;;5073559;28;20038;-71
2024/01/30 10:14:44;;;;;;;12.38;9.00;;;9.60;99.90;;;;;;5071942;28;20036;-71
2024/01/30 10:17:11;;;;;;;14.07;9.30;;;9.60;99.90;;;;;;5073375;28;20111;-71
2024/01/30 10:19:38;;;;;;;13.57;9.32;;;9.70;99.90;;;;;;5073455;28;20114;-71
2024/01/30 10:22:04;;;;;;;14.90;8.98;;;9.70;99.90;;;;;;5071915;28;20085;-72
2024/01/30 10:24:31;;;;;;;15.90;9.55;;;9.80;99.90;;;;;;5071876;28;20131;-72
2024/01/30 10:26:57;;;;;;;13.93;9.50;;;9.80;99.90;;;;;;5072266;28;20040;-71
2024/01/30 10:29:22;;;;;;;14.05;9.15;;;9.80;99.90;;;;;;5073311;28;20041;-71
2024/01/30 10:32:06;;;;;;;14.88;9.85;;;9.90;99.90;;;;;;5071788;28;20167;-71
2024/01/30 10:34:32;;;;;;;13.43;9.07;;;10.00;99.90;;;;;;5073310;28;20040;-71
2024/01/30 10:37:07;;;;;;;17.85;9.95;;;10.00;99.90;;;;;;5071703;28;20615;-71
2024/01/30 10:39:39;;;;;;;15.77;9.63;;;10.10;99.90;;;;;;5071773;28;20048;-71
2024/01/30 10:42:05;;;;;;;18.88;9.85;;;10.10;99.90;;;;;;5071757;28;20044;-71
2024/01/30 10:44:39;;;;;;;17.15;10.07;;;10.10;99.90;;;;;;5076162;28;20033;-71
2024/01/30 10:47:11;;;;;;;15.73;10.30;;;10.10;99.90;;;;;;5076021;28;20085;-71
2024/01/30 10:49:37;;;;;;;21.10;10.43;;;10.10;99.90;;;;;;5075855;28;20076;-71
2024/01/30 10:52:05;;;;;;;15.73;9.75;;;10.10;99.90;;;;;;5076036;28;20149;-71
2024/01/30 10:54:33;;;;;;;18.80;10.02;;;10.10;99.90;;;;;;5075726;28;20068;-71
2024/01/30 10:57:01;;;;;;;23.92;10.35;;;10.10;99.90;;;;;;5075587;28;20108;-71
2024/01/30 10:59:28;;;;;;;14.60;9.85;;;10.10;99.90;;;;;;5077203;28;20051;-72
2024/01/30 11:01:54;;;;;;;18.50;10.52;;;10.10;99.90;;;;;;5075828;28;20059;-72
2024/01/30 11:04:20;;;;;;;15.55;10.10;;;10.10;99.90;;;;;;5075530;28;20413;-72
2024/01/30 11:06:49;;;;;;;18.73;11.48;;;10.10;99.90;;;;;;5075398;28;20055;-71
2024/01/30 11:09:17;;;;;;;24.25;10.70;;;10.10;99.90;;;;;;5075323;28;20044;-71
2024/01/30 11:12:02;;;;;;;15.25;10.48;;;10.10;99.90;;;;;;5075381;28;20097;-71
2024/01/30 11:14:30;;;;;;;21.10;10.65;;;10.10;99.90;;;;;;5076888;28;20055;-71
2024/01/30 11:16:59;;;;;;;19.33;11.20;;;10.10;99.90;;;;;;5075234;28;20079;-71
2024/01/30 11:19:26;;;;;;;18.10;10.50;;;10.10;99.90;;;;;;5075223;28;20044;-71
2024/01/30 11:21:54;;;;;;;18.25;11.00;;;10.20;99.90;;;;;;5075145;28;20055;-71
2024/01/30 11:24:21;;;;;;;21.10;10.90;;;10.20;99.90;;;;;;5076657;28;20397;-71
2024/01/30 11:26:57;;;;;;;16.00;11.23;;;10.20;99.90;;;;;;5075212;28;20044;-71
2024/01/30 11:29:29;;;;;;;19.65;10.88;;;10.20;99.90;;;;;;5076229;28;20076;-71
2024/01/30 11:31:57;;;;;;;20.45;11.52;;;10.20;99.90;;;;;;5074952;28;20040;-71
2024/01/30 11:34:23;;;;;;;19.50;11.73;;;10.20;99.90;;;;;;5074859;28;20036;-71
2024/01/30 11:36:55;;;;;;;21.83;11.23;;;10.30;99.90;;;;;;5075113;28;20043;-71
2024/01/30 11:39:21;;;;;;;20.88;11.60;;;10.20;99.90;;;;;;5075386;28;20405;-71
2024/01/30 11:41:50;;;;;;;20.80;11.65;;;10.30;99.90;;;;;;5075967;28;20393;-71
2024/01/30 11:44:16;;;;;;;16.77;11.23;;;10.30;99.90;;;;;;5076055;28;20064;-71
2024/01/30 11:46:41;;;;;;;19.02;10.88;;;10.40;99.90;;;;;;5074907;28;20509;-71
2024/01/30 11:49:07;;;;;;;16.83;11.50;;;10.40;99.90;;;;;;5076110;28;20375;-71
2024/01/30 11:51:33;;;;;;;17.25;11.20;;;10.40;99.90;;;;;;5074853;28;20125;-72
2024/01/30 11:53:58;;;;;;;18.88;11.57;;;10.50;99.90;;;;;;5074196;28;20485;-71
2024/01/30 11:56:25;;;;;;;17.13;11.75;;;10.50;99.90;;;;;;5074805;28;20041;-71
2024/01/30 11:58:52;;;;;;;20.77;11.65;;;10.60;99.90;;;;;;5074740;28;20040;-71
2024/01/30 12:01:17;;;;;;;16.50;11.18;;;10.60;99.90;;;;;;5074678;28;20048;-71
2024/01/30 12:03:49;;;;;;;16.85;11.15;;;10.70;99.90;;;;;;5075920;28;20485;-71
2024/01/30 12:06:16;;;;;;;15.88;11.00;;;10.70;99.90;;;;;;5074962;28;20444;-71
2024/01/30 12:08:42;;;;;;;19.90;13.00;;;10.60;99.90;;;;;;5074321;28;20040;-71
2024/01/30 12:11:08;;;;;;;21.67;11.23;;;10.60;99.90;;;;;;5075771;28;20044;-71
2024/01/30 12:13:34;;;;;;;23.20;10.43;;;10.60;99.90;;;;;;5075780;28;20097;-71
2024/01/30 12:16:03;;;;;;;23.50;8.80;;;10.50;99.90;;;;;;5074298;28;20554;-71
2024/01/30 12:18:29;;;;;;;22.23;9.25;;;10.40;99.90;;;;;;5075660;28;20462;-72
2024/01/30 12:21:00;;;;;;;21.70;7.65;;;10.30;99.90;;;;;;5075558;28;20433;-72
2024/01/30 12:23:28;;;;;;;21.38;7.47;;;10.30;99.90;;;;;;5075607;28;20072;-72
2024/01/30 12:25:54;;;;;;;14.73;6.38;;;10.20;99.90;;;;;;5073887;28;20123;-71
2024/01/30 12:28:20;;;;;;;11.57;5.22;;;10.20;99.90;;;;;;5074201;28;20124;-71
2024/01/30 12:30:46;;;;;;;12.00;5.13;;;10.20;99.90;;;;;;5073850;28;20048;-72